Time;durP1;ratioP1;P1;durP2;ratioP2;P2;SDS_P1;SDS_P2;PMS_P1;PMS_P2;Temp;Humidity;BMP_temperature;BMP_pressure;BME280_temperature;BME280_humidity;BME280_pressure;Samples;Min_cycle;Max_cycle;Signal;HPM_P1;HPM_P2
2023/12/07 00:02:15;;;;;;;30.08;14.73;;;;;;;-6.79;58.89;101433.44;6234648;23;20047;-87
2023/12/07 00:04:41;;;;;;;40.50;15.23;;;;;;;-6.56;59.70;101487.09;6233560;23;20016;-90
2023/12/07 00:07:31;;;;;;;41.65;16.15;;;;;;;-6.33;60.09;101521.28;6211336;23;20035;-87
2023/12/07 00:09:57;;;;;;;35.83;16.40;;;;;;;-6.75;60.43;101469.41;6214269;23;20020;-88
2023/12/07 00:12:24;;;;;;;29.70;13.93;;;;;;;-6.47;60.20;101533.28;6214713;23;20028;-87
2023/12/07 00:14:57;;;;;;;32.50;13.85;;;;;;;-7.17;59.91;101402.56;6213805;22;20000;-86
2023/12/07 00:17:40;;;;;;;29.88;14.73;;;;;;;-6.92;60.05;101439.13;6239528;22;20016;-87
2023/12/07 00:20:10;;;;;;;34.70;14.70;;;;;;;-7.14;59.60;101407.59;6253538;23;20024;-87
2023/12/07 00:23:42;;;;;;;38.25;16.00;;;;;;;-6.41;60.23;101520.22;6239013;23;20054;-88
2023/12/07 00:26:33;;;;;;;37.17;15.27;;;;;;;-6.63;60.27;101526.75;6210940;23;20012;-86
2023/12/07 00:29:06;;;;;;;34.63;16.45;;;;;;;-7.37;60.68;101407.94;6232338;23;20026;-87
2023/12/07 00:32:38;;;;;;;36.53;16.70;;;;;;;-6.56;60.39;101526.16;6209523;23;20415;-86
2023/12/07 00:35:05;;;;;;;31.63;14.82;;;;;;;-7.05;60.73;101502.41;6209850;23;20020;-87
2023/12/07 00:37:41;;;;;;;36.55;15.23;;;;;;;-7.34;61.38;101444.03;6187809;23;20003;-88
2023/12/07 00:40:36;;;;;;;39.63;15.15;;;;;;;-7.05;61.10;101522.81;6188379;23;20024;-87
2023/12/07 00:43:18;;;;;;;51.80;16.48;;;;;;;-7.49;61.78;101482.63;6265518;22;20024;-87
2023/12/07 00:45:45;;;;;;;34.03;15.02;;;;;;;-7.63;61.33;101482.09;6164652;23;20020;-86
2023/12/07 00:48:26;;;;;;;32.22;15.63;;;;;;;-8.13;61.75;101418.53;6188972;23;20016;-86
2023/12/07 00:50:52;;;;;;;35.08;14.18;;;;;;;-8.01;61.96;101443.13;6236302;23;20011;-87
2023/12/07 00:53:18;;;;;;;34.47;14.93;;;;;;;-7.74;61.93;101490.22;6190688;23;20035;-87
2023/12/07 00:55:44;;;;;;;36.38;15.30;;;;;;;-7.52;62.25;101542.19;6237965;23;20031;-89
2023/12/07 00:58:13;;;;;;;33.72;15.00;;;;;;;-7.82;62.23;101498.84;6188063;23;20103;-87
2023/12/07 01:00:41;;;;;;;41.38;16.90;;;;;;;-8.21;62.29;101421.06;6189212;23;20066;-88
2023/12/07 01:04:06;;;;;;;31.27;13.70;;;;;;;-7.48;62.22;101537.44;6190970;23;20382;-88
2023/12/07 01:07:47;;;;;;;27.38;12.70;;;;;;;-7.61;62.58;101546.53;6236098;23;20027;-88
2023/12/07 01:10:34;;;;;;;29.08;13.73;;;;;;;-8.10;62.43;101478.47;6261735;23;20020;-87
2023/12/07 01:13:12;;;;;;;28.85;12.05;;;;;;;-8.34;62.37;101420.50;6236454;23;20020;-88
2023/12/07 01:15:38;;;;;;;27.73;11.85;;;;;;;-7.72;62.37;101535.19;6211596;23;20025;-89
2023/12/07 01:18:04;;;;;;;31.13;13.40;;;;;;;-7.64;62.25;101530.03;6238170;23;20016;-88
2023/12/07 01:20:31;;;;;;;34.95;13.80;;;;;;;-7.66;61.83;101508.91;6235673;23;20027;-89
2023/12/07 01:23:08;;;;;;;27.23;12.80;;;;;;;-7.49;61.97;101551.69;6189129;23;20019;-88
2023/12/07 01:26:02;;;;;;;25.60;12.13;;;;;;;-7.42;62.01;101560.78;6213775;23;20024;-88
2023/12/07 01:28:52;;;;;;;27.55;13.20;;;;;;;-7.99;62.36;101485.44;6226671;23;20112;-87
2023/12/07 01:31:44;;;;;;;34.30;14.27;;;;;;;-7.34;61.85;101550.31;6117856;23;20018;-87
2023/12/07 01:34:24;;;;;;;27.55;10.77;;;;;;;-7.44;61.25;101522.91;6093318;23;20026;-88
2023/12/07 01:37:55;;;;;;;41.55;14.98;;;;;;;-7.19;60.99;101558.66;6119071;23;20018;-89
2023/12/07 01:40:22;;;;;;;26.77;13.07;;;;;;;-7.18;60.96;101536.44;6142239;23;20045;-88
2023/12/07 01:42:52;;;;;;;31.47;14.40;;;;;;;-6.96;60.44;101557.34;6094795;23;20021;-89
2023/12/07 01:45:20;;;;;;;29.65;14.18;;;;;;;-6.96;60.00;101569.81;6118637;23;20257;-88
2023/12/07 01:47:54;;;;;;;35.53;14.75;;;;;;;-7.16;59.85;101526.50;6069041;23;20058;-89
2023/12/07 01:50:46;;;;;;;40.45;13.90;;;;;;;-6.94;59.85;101568.69;6141695;23;20025;-90
2023/12/07 01:53:16;;;;;;;33.42;14.35;;;;;;;-7.42;59.49;101535.03;6093132;23;20032;-88
2023/12/07 01:55:43;;;;;;;31.42;14.85;;;;;;;-7.20;60.12;101552.50;6117268;23;20018;-88
2023/12/07 01:58:27;;;;;;;34.50;15.45;;;;;;;-7.42;59.64;101515.63;6118740;23;20021;-89
2023/12/07 02:01:01;;;;;;;37.78;15.10;;;;;;;-7.01;59.78;101582.72;6119797;23;20138;-87
2023/12/07 02:03:53;;;;;;;32.85;15.45;;;;;;;-6.80;59.50;101594.00;6181696;23;20027;-89
2023/12/07 02:06:35;;;;;;;33.80;14.32;;;;;;;-7.77;58.88;101447.19;6207423;23;20013;-88
2023/12/07 02:09:03;;;;;;;30.00;14.45;;;;;;;-7.05;59.47;101582.16;6180036;23;20047;-88
2023/12/07 02:11:35;;;;;;;33.60;15.13;;;;;;;-7.05;59.00;101533.44;6133029;23;20020;-88
2023/12/07 02:14:02;;;;;;;36.60;15.20;;;;;;;-7.07;58.84;101522.97;6180219;23;20111;-89
2023/12/07 02:17:14;;;;;;;33.45;14.23;;;;;;;-6.55;58.68;101583.72;6205442;23;20021;-88
2023/12/07 02:20:26;;;;;;;32.10;13.55;;;;;;;-6.50;58.54;101595.59;6030252;23;20015;-86
2023/12/07 02:23:19;;;;;;;32.38;14.70;;;;;;;-6.57;57.82;101578.53;6082657;23;20042;-88
2023/12/07 02:26:39;;;;;;;35.08;12.30;;;;;;;-6.43;57.69;101596.69;6082860;23;20019;-87
2023/12/07 02:29:31;;;;;;;35.90;13.50;;;;;;;-6.47;57.75;101597.97;6043692;23;20011;-87
2023/12/07 02:32:26;;;;;;;;;;;;;;;-6.50;58.03;101594.75;6055387;23;20104;-88
2023/12/07 02:34:52;;;;;;;30.65;13.07;;;;;;;-6.72;57.78;101574.66;6056288;23;19946;-88
2023/12/07 02:37:51;;;;;;;30.48;12.15;;;;;;;-6.49;57.59;101610.59;6053214;23;20581;-88
2023/12/07 02:40:38;;;;;;;29.13;13.02;;;;;;;-7.14;58.01;101514.75;6002557;23;20058;-87
2023/12/07 02:43:28;;;;;;;28.55;12.95;;;;;;;-6.51;58.04;101609.88;6000620;23;20027;-87
2023/12/07 02:46:07;;;;;;;28.48;13.07;;;;;;;-7.18;57.54;101492.09;6023480;23;20426;-87
2023/12/07 02:48:37;;;;;;;34.00;13.63;;;;;;;-7.16;58.03;101515.84;6025842;23;20011;-89
2023/12/07 02:51:03;;;;;;;32.70;13.93;;;;;;;-7.31;58.04;101512.81;6002665;23;20031;-88
2023/12/07 02:53:29;;;;;;;33.25;15.23;;;;;;;-7.09;58.30;101554.16;5978165;23;20055;-88
2023/12/07 02:55:55;;;;;;;28.50;12.88;;;;;;;-7.02;58.17;101562.41;6027398;23;20025;-91
2023/12/07 02:59:11;;;;;;;36.63;14.13;;;;;;;-6.57;58.29;101622.94;6085227;23;20105;-88
2023/12/07 03:02:36;;;;;;;32.88;14.85;;;;;;;-6.56;57.86;101620.09;6110972;23;20028;-92
2023/12/07 03:05:07;;;;;;;36.45;13.68;;;;;;;-7.07;57.95;101535.44;6112252;23;20018;-88
2023/12/07 03:07:35;;;;;;;36.63;15.38;;;;;;;-6.92;57.30;101553.47;6113376;23;20003;-89
2023/12/07 03:10:05;;;;;;;37.38;14.13;;;;;;;-6.63;57.53;101603.06;6092612;23;20030;-89
2023/12/07 03:12:32;;;;;;;27.45;12.48;;;;;;;-6.99;57.48;101581.56;6089196;23;20015;-87
2023/12/07 03:15:02;;;;;;;31.90;14.57;;;;;;;-7.04;57.92;101583.84;6064528;23;20029;-87
2023/12/07 03:17:29;;;;;;;40.50;15.73;;;;;;;-7.15;57.92;101560.06;6139343;23;20024;-87
2023/12/07 03:19:56;;;;;;;37.72;13.13;;;;;;;-6.82;57.75;101600.44;6176011;23;20071;-86
2023/12/07 03:22:22;;;;;;;28.98;12.88;;;;;;;-6.75;57.35;101607.72;6202950;23;20017;-88
2023/12/07 03:24:51;;;;;;;33.53;14.32;;;;;;;-6.70;57.24;101620.56;6152700;23;20020;-89
2023/12/07 03:27:19;;;;;;;30.10;13.57;;;;;;;-6.89;57.22;101598.38;6177781;23;20032;-87
2023/12/07 03:29:45;;;;;;;28.25;13.07;;;;;;;-6.93;57.71;101617.41;6159440;23;20016;-88
2023/12/07 03:32:43;;;;;;;35.75;12.35;;;;;;;-7.63;58.00;101506.00;6203068;23;20033;-88
2023/12/07 03:35:09;;;;;;;27.73;11.88;;;;;;;-6.68;58.09;101650.53;6129685;23;20029;-88
2023/12/07 03:37:36;;;;;;;28.27;12.32;;;;;;;-7.37;57.87;101570.00;6153194;23;20017;-87
2023/12/07 03:40:05;;;;;;;34.25;12.70;;;;;;;-6.80;58.03;101657.81;6154797;23;20069;-86
2023/12/07 03:43:03;;;;;;;27.35;12.85;;;;;;;-6.78;58.29;101661.19;6158075;23;20017;-91
2023/12/07 03:48:34;;;;;;;27.95;11.85;;;;;;;-7.21;58.54;101625.25;6183945;23;19997;-88
2023/12/07 03:51:04;;;;;;;30.98;12.73;;;;;;;-7.27;58.53;101599.25;6181776;23;20100;-89
2023/12/07 03:53:37;;;;;;;25.75;12.23;;;;;;;-7.19;58.29;101625.09;6210062;23;20020;-89
2023/12/07 03:56:16;;;;;;;36.17;12.63;;;;;;;-7.13;58.33;101624.56;6162815;23;20084;-89
2023/12/07 04:02:55;;;;;;;30.83;12.23;;;;;;;-7.53;57.85;101561.75;6183108;23;20017;-89
2023/12/07 04:06:02;;;;;;;25.60;10.88;;;;;;;-6.84;57.84;101668.91;6176284;23;20021;-88
2023/12/07 04:09:11;;;;;;;28.10;11.50;;;;;;;-7.17;57.38;101604.56;6187177;23;20009;-88
2023/12/07 04:12:30;;;;;;;24.73;10.73;;;;;;;-7.07;57.36;101628.47;6210651;23;20023;-89
2023/12/07 04:14:57;;;;;;;;;;;;;;;-6.90;57.37;101670.28;6160174;23;20021;-88
2023/12/07 04:21:06;;;;;;;22.02;9.95;;;;;;;-7.61;57.66;101604.97;6092189;23;20019;-88
2023/12/07 04:35:54;;;;;;;26.88;11.35;;;;;;;-7.48;58.24;101625.97;6242813;22;20037;-88
2023/12/07 04:39:19;;;;;;;26.75;11.93;;;;;;;-7.01;58.05;101694.38;6216229;23;20008;-90
2023/12/07 04:43:16;;;;;;;26.02;10.93;;;;;;;-6.98;58.11;101688.78;6242193;23;20024;-89
2023/12/07 04:49:19;;;;;;;25.83;10.20;;;;;;;-7.03;57.97;101694.50;6239878;22;20024;-86
2023/12/07 04:51:50;;;;;;;24.58;11.60;;;;;;;-7.26;58.04;101658.53;6241013;23;20050;-88
2023/12/07 04:54:19;;;;;;;37.88;14.02;;;;;;;-7.41;57.67;101607.66;6188023;23;20052;-88
2023/12/07 04:57:31;;;;;;;30.38;12.00;;;;;;;-6.79;57.32;101701.22;6238083;23;20020;-89
2023/12/07 05:00:49;;;;;;;34.05;13.23;;;;;;;-6.92;57.54;101705.03;6238913;23;20025;-89
2023/12/07 05:03:36;;;;;;;29.73;11.55;;;;;;;-6.88;57.31;101702.91;6213353;23;20020;-87
2023/12/07 05:06:11;;;;;;;31.38;13.68;;;;;;;-7.69;57.78;101618.09;6238060;23;20024;-88
2023/12/07 05:08:41;;;;;;;36.28;13.32;;;;;;;-7.13;57.64;101698.97;6239791;23;20000;-89
2023/12/07 05:11:12;;;;;;;30.17;13.73;;;;;;;-7.42;57.65;101680.34;6238001;23;20044;-87
2023/12/07 05:13:48;;;;;;;27.75;11.68;;;;;;;-7.35;57.76;101692.09;6238466;23;20024;-88
2023/12/07 05:16:14;;;;;;;32.47;13.00;;;;;;;-7.29;57.68;101688.88;6160538;23;20080;-88
2023/12/07 05:18:44;;;;;;;32.60;12.85;;;;;;;-7.30;57.33;101689.88;6237588;23;20008;-85
2023/12/07 05:21:16;;;;;;;24.42;11.27;;;;;;;-7.20;57.12;101727.09;6237005;23;20080;-86
2023/12/07 05:23:45;;;;;;;34.42;12.15;;;;;;;-7.71;57.04;101641.28;6239322;23;20016;-85
2023/12/07 05:26:21;;;;;;;24.45;11.57;;;;;;;-7.49;57.27;101681.88;6237104;23;20000;-85
2023/12/07 05:28:50;;;;;;;32.78;12.70;;;;;;;-7.77;56.97;101646.31;6241130;23;20025;-85
2023/12/07 05:31:25;;;;;;;28.38;11.50;;;;;;;-8.16;57.09;101593.09;6212911;23;20009;-87
2023/12/07 05:34:02;;;;;;;29.25;12.77;;;;;;;-7.63;57.07;101696.38;6186162;23;20029;-85
2023/12/07 05:36:39;;;;;;;30.17;12.65;;;;;;;-7.43;57.05;101747.75;6182694;23;20001;-86
2023/12/07 05:39:07;;;;;;;29.85;12.13;;;;;;;-7.83;57.03;101693.66;6154887;23;20021;-85
2023/12/07 05:41:34;;;;;;;33.35;11.48;;;;;;;-7.48;56.84;101744.63;6177680;23;20048;-86
2023/12/07 05:44:00;;;;;;;32.97;12.85;;;;;;;-7.69;56.37;101737.59;6204779;23;20028;-86
2023/12/07 05:46:28;;;;;;;33.47;12.73;;;;;;;-7.56;56.38;101764.75;6152927;23;20028;-85
2023/12/07 05:48:54;;;;;;;28.75;11.95;;;;;;;-7.61;55.93;101759.03;6205367;23;20111;-84
2023/12/07 05:51:23;;;;;;;30.90;11.85;;;;;;;-7.81;55.49;101734.22;6150709;23;20025;-85
2023/12/07 05:53:52;;;;;;;27.73;11.23;;;;;;;-7.72;55.33;101752.94;6152574;23;20021;-84
2023/12/07 05:56:21;;;;;;;23.58;10.32;;;;;;;-8.14;55.36;101698.16;6179700;23;20048;-86
2023/12/07 05:58:58;;;;;;;30.80;13.18;;;;;;;-8.27;55.69;101681.63;6132954;23;20028;-85
2023/12/07 06:01:43;;;;;;;22.88;11.07;;;;;;;-8.20;56.19;101719.06;6203279;23;20020;-85
2023/12/07 06:04:10;;;;;;;27.30;10.82;;;;;;;-8.14;56.34;101726.50;6178921;23;20028;-84
2023/12/07 06:06:40;;;;;;;31.60;12.10;;;;;;;-7.90;56.16;101766.03;6177909;23;20004;-83
2023/12/07 06:09:12;;;;;;;28.63;11.77;;;;;;;-8.04;56.02;101745.97;6206050;23;20029;-85
2023/12/07 06:11:40;;;;;;;24.42;10.70;;;;;;;-7.94;55.99;101769.91;6203200;23;20060;-84
2023/12/07 06:14:07;;;;;;;31.13;11.40;;;;;;;-8.29;55.97;101704.78;6153617;23;20017;-85
2023/12/07 06:16:35;;;;;;;29.50;11.70;;;;;;;-8.40;56.15;101687.16;6203241;23;20073;-85
2023/12/07 06:19:01;;;;;;;31.25;12.57;;;;;;;-8.37;56.17;101704.59;6130624;23;20036;-87
2023/12/07 06:21:31;;;;;;;31.58;11.27;;;;;;;-8.02;56.43;101757.28;6149294;23;20047;-88
2023/12/07 06:23:58;;;;;;;31.85;12.63;;;;;;;-7.96;56.20;101769.19;6179258;23;20009;-85
2023/12/07 06:26:33;;;;;;;38.75;13.48;;;;;;;-8.19;55.98;101723.41;6203769;23;20017;-87
2023/12/07 06:28:59;;;;;;;29.15;12.45;;;;;;;-7.88;56.18;101779.97;6153425;23;20001;-85
2023/12/07 06:31:28;;;;;;;35.38;14.00;;;;;;;-7.86;55.80;101778.06;6155437;23;20024;-84
2023/12/07 06:33:56;;;;;;;40.10;14.80;;;;;;;-7.87;55.96;101777.22;6140545;23;20004;-87
2023/12/07 06:36:24;;;;;;;32.10;14.23;;;;;;;-7.87;55.95;101774.56;6233248;23;20016;-85
2023/12/07 06:39:22;;;;;;;35.03;12.40;;;;;;;-8.75;55.93;101656.50;6211137;23;20028;-86
2023/12/07 06:41:51;;;;;;;31.77;11.95;;;;;;;-8.03;56.02;101766.22;6210138;23;20030;-84
2023/12/07 06:44:20;;;;;;;36.45;13.55;;;;;;;-7.94;56.07;101783.19;6183429;23;20000;-87
2023/12/07 06:46:52;;;;;;;32.72;13.75;;;;;;;-7.98;55.61;101768.47;6163491;23;20501;-86
2023/12/07 06:49:19;;;;;;;30.13;14.23;;;;;;;-8.06;55.57;101754.06;6231472;23;20016;-85
2023/12/07 06:51:45;;;;;;;43.13;17.17;;;;;;;-8.20;55.94;101725.22;6234502;23;20024;-85
2023/12/07 06:54:11;;;;;;;41.08;15.63;;;;;;;-7.85;55.73;101763.78;6233159;23;20080;-84
2023/12/07 06:56:44;;;;;;;36.20;15.57;;;;;;;-7.94;55.56;101748.69;6157080;23;20027;-85
2023/12/07 06:59:14;;;;;;;41.75;17.52;;;;;;;-7.92;55.53;101752.88;6206279;23;20086;-85
2023/12/07 07:01:53;;;;;;;41.08;16.85;;;;;;;-7.87;55.62;101773.72;6209897;23;20025;-86
2023/12/07 07:04:29;;;;;;;37.05;14.68;;;;;;;-8.35;55.92;101698.16;6159042;23;20017;-83
2023/12/07 07:07:18;;;;;;;53.40;16.55;;;;;;;-8.02;55.98;101746.66;6208743;23;20027;-86
2023/12/07 07:09:46;;;;;;;50.83;16.00;;;;;;;-8.14;55.65;101698.16;6210296;23;20031;-85
2023/12/07 07:12:23;;;;;;;51.30;17.48;;;;;;;-7.70;55.57;101778.41;6206814;23;20074;-84
2023/12/07 07:14:54;;;;;;;38.70;15.65;;;;;;;-7.86;56.23;101789.50;6237418;23;20029;-88
2023/12/07 07:17:22;;;;;;;36.60;15.57;;;;;;;-8.25;56.55;101703.53;6210425;23;20020;-86
2023/12/07 07:19:55;;;;;;;41.47;17.52;;;;;;;-8.00;56.94;101759.81;6209008;23;20032;-85
2023/12/07 07:22:25;;;;;;;45.78;17.13;;;;;;;-7.95;57.26;101782.31;6211176;23;20021;-85
2023/12/07 07:24:59;;;;;;;39.10;16.50;;;;;;;-8.39;57.07;101678.22;6210171;23;20031;-85
2023/12/07 07:27:41;;;;;;;36.63;15.90;;;;;;;-7.73;56.39;101778.66;6182889;23;20020;-88
2023/12/07 07:30:21;;;;;;;38.55;15.50;;;;;;;-8.33;56.72;101671.53;6210194;23;20027;-84
2023/12/07 07:33:17;;;;;;;41.63;15.30;;;;;;;-7.54;56.63;101777.91;6234554;23;20111;-86
2023/12/07 07:35:55;;;;;;;31.42;13.85;;;;;;;-7.80;56.36;101714.63;6163476;23;20009;-84
2023/12/07 07:38:27;;;;;;;50.22;17.80;;;;;;;-7.34;56.17;101781.47;6181861;23;20021;-85
2023/12/07 07:41:20;;;;;;;42.70;16.85;;;;;;;-7.25;55.81;101787.78;6204908;23;20417;-85
2023/12/07 07:43:51;;;;;;;42.83;17.27;;;;;;;-7.22;55.91;101793.66;6237220;23;20031;-86
2023/12/07 07:46:21;;;;;;;34.42;17.05;;;;;;;-7.59;55.62;101733.16;6232954;23;20032;-85
2023/12/07 07:48:54;;;;;;;48.95;17.63;;;;;;;-7.45;55.70;101734.59;6206289;23;20012;-85
2023/12/07 07:51:21;;;;;;;49.25;18.60;;;;;;;-7.12;55.67;101775.06;6233985;23;20016;-87
2023/12/07 07:53:48;;;;;;;44.65;17.08;;;;;;;-7.31;55.55;101756.47;6229965;23;20024;-85
2023/12/07 07:56:14;;;;;;;47.38;17.02;;;;;;;-7.54;55.67;101724.78;6206299;23;20025;-84
2023/12/07 07:58:43;;;;;;;41.38;17.92;;;;;;;-7.01;55.80;101801.56;6232667;23;20020;-86
2023/12/07 08:01:10;;;;;;;43.10;18.83;;;;;;;-6.99;55.92;101809.38;6183664;23;20047;-88
2023/12/07 08:03:37;;;;;;;51.85;20.30;;;;;;;-6.90;55.66;101804.09;6233207;23;20019;-86
2023/12/07 08:06:08;;;;;;;59.33;22.23;;;;;;;-7.00;55.93;101778.47;6236948;23;20343;-85
2023/12/07 08:08:59;;;;;;;52.60;19.48;;;;;;;-7.16;55.83;101763.03;6122639;23;20341;-85
2023/12/07 08:11:33;;;;;;;48.40;18.85;;;;;;;-7.23;56.06;101743.31;6118547;23;20014;-85
2023/12/07 08:14:01;;;;;;;42.58;20.30;;;;;;;-6.66;55.69;101809.00;6144923;23;20102;-83
2023/12/07 08:16:29;;;;;;;48.63;19.17;;;;;;;-6.96;55.38;101724.03;6138378;23;20018;-86
2023/12/07 08:18:56;;;;;;;;;;;;;;;-6.45;55.05;101811.56;6116037;23;20052;-86
2023/12/07 08:21:34;;;;;;;31.45;15.10;;;;;;;-6.38;54.96;101815.31;6143001;23;19917;-87
2023/12/07 08:24:32;;;;;;;46.72;14.88;;;;;;;-6.36;54.70;101815.19;6118071;23;20034;-86
2023/12/07 08:26:59;;;;;;;29.17;13.27;;;;;;;-6.64;54.48;101755.69;6141199;23;20022;-86
2023/12/07 08:29:41;;;;;;;32.83;14.07;;;;;;;-7.02;54.62;101692.69;6117873;23;20018;-88
2023/12/07 08:32:11;;;;;;;44.20;14.85;;;;;;;-6.47;54.85;101786.06;6094079;23;20054;-85
2023/12/07 08:34:41;;;;;;;36.28;13.40;;;;;;;-6.79;54.82;101725.97;6224448;23;20024;-84
2023/12/07 08:37:07;;;;;;;32.55;14.38;;;;;;;-6.40;54.57;101779.19;6213012;23;20016;-84
2023/12/07 08:39:39;;;;;;;34.40;14.38;;;;;;;-6.49;54.54;101753.41;6240394;23;20024;-85
2023/12/07 08:42:13;;;;;;;33.22;15.05;;;;;;;-6.19;54.57;101793.19;6237727;23;20027;-87
2023/12/07 08:45:05;;;;;;;33.42;12.50;;;;;;;-6.31;54.47;101759.72;6214899;23;20044;-86
2023/12/07 08:47:55;;;;;;;28.75;13.48;;;;;;;-5.99;54.24;101796.66;6238535;23;19995;-86
2023/12/07 08:50:22;;;;;;;25.48;10.85;;;;;;;-6.28;54.02;101747.94;6237415;23;20016;-87
2023/12/07 08:53:11;;;;;;;22.83;10.05;;;;;;;-5.95;53.84;101799.88;6219837;23;20035;-88
2023/12/07 08:56:14;;;;;;;22.10;10.70;;;;;;;-5.88;53.55;101806.25;6224350;23;20354;-88
2023/12/07 08:58:41;;;;;;;26.08;10.57;;;;;;;-6.41;53.48;101705.66;6191423;23;19996;-86
2023/12/07 09:01:09;;;;;;;27.40;11.15;;;;;;;-6.50;53.51;101698.53;6124233;23;20024;-86
2023/12/07 09:03:37;;;;;;;25.95;10.13;;;;;;;-6.25;52.99;101734.34;6204485;23;20592;-89
2023/12/07 09:06:42;;;;;;;24.10;10.68;;;;;;;-6.59;53.21;101678.09;6158283;23;20024;-88
2023/12/07 09:09:27;;;;;;;26.80;10.75;;;;;;;-6.10;53.08;101793.28;6155420;23;20021;-90
2023/12/07 09:43:45;;;;;;;25.80;11.10;;;;;;;-6.96;53.03;101670.84;6262349;22;20115;-89
2023/12/07 10:05:16;;;;;;;24.30;10.25;;;;;;;-6.57;52.54;101703.56;6260576;22;20051;-86
2023/12/07 10:10:41;;;;;;;24.60;11.15;;;;;;;-6.17;51.83;101745.94;6253340;22;20020;-86
2023/12/07 10:13:45;;;;;;;23.58;10.57;;;;;;;-6.13;51.78;101741.16;6258966;22;20032;-88
2023/12/07 10:16:14;;;;;;;;;;;;;;;-5.80;51.39;101790.38;6217345;23;20016;-88
2023/12/07 10:22:18;;;;;;;20.92;9.85;;;;;;;-6.07;51.16;101737.94;6208534;23;20024;-88
2023/12/07 10:24:48;;;;;;;;;;;;;;;-5.71;51.51;101791.34;6193982;23;20024;-86
2023/12/07 10:27:28;;;;;;;38.72;10.95;;;;;;;-5.96;51.42;101739.56;6224546;23;19919;-88
2023/12/07 10:29:58;;;;;;;20.42;11.38;;;;;;;-6.00;51.53;101749.69;6220913;23;20004;-87
2023/12/07 10:32:26;;;;;;;21.67;10.65;;;;;;;-5.92;51.13;101736.47;6196245;23;20024;-88
2023/12/07 10:35:44;;;;;;;27.48;11.38;;;;;;;-5.85;51.47;101760.69;6269926;22;20050;-88
2023/12/07 10:38:39;;;;;;;28.40;11.20;;;;;;;-5.70;51.47;101785.84;6269088;23;20028;-89
2023/12/07 10:41:43;;;;;;;22.73;10.27;;;;;;;-5.92;51.50;101772.91;6245401;23;20028;-87
2023/12/07 10:44:20;;;;;;;24.77;10.60;;;;;;;-5.81;51.44;101758.56;6155872;23;20024;-88
2023/12/07 10:51:40;;;;;;;24.40;11.07;;;;;;;-5.63;51.33;101778.13;6154785;23;20029;-88
2023/12/07 11:00:39;;;;;;;29.77;9.98;;;;;;;-5.90;51.56;101745.13;6093037;23;20029;-88
2023/12/07 11:03:49;;;;;;;25.83;10.60;;;;;;;-6.23;51.55;101684.44;6028475;23;20003;-86
2023/12/07 11:07:24;;;;;;;23.98;9.50;;;;;;;-5.59;51.32;101790.19;6023933;23;20013;-89
2023/12/07 11:13:19;;;;;;;22.08;10.10;;;;;;;-6.22;51.29;101683.50;6032782;23;20031;-85
2023/12/07 11:19:08;;;;;;;18.52;9.45;;;;;;;-5.73;51.59;101806.63;5580219;23;15108507;-86
2023/12/07 11:24:25;;;;;;;15.93;8.75;;;;;;;-5.93;51.67;101765.91;6204095;23;20080;-87
2023/12/07 11:26:52;;;;;;;24.00;9.85;;;;;;;-6.07;51.48;101739.75;6157073;23;20021;-86
2023/12/07 11:29:32;;;;;;;21.27;10.25;;;;;;;-5.72;51.60;101777.19;6208771;23;20013;-84
2023/12/07 11:32:08;;;;;;;18.98;9.15;;;;;;;-6.17;51.43;101727.31;6204788;23;20044;-84
2023/12/07 11:34:43;;;;;;;22.92;10.50;;;;;;;-6.08;51.60;101746.91;6126435;23;20561;-86
2023/12/07 11:37:14;;;;;;;30.55;11.55;;;;;;;-6.32;51.97;101717.25;6172393;23;20027;-87
2023/12/07 11:39:41;;;;;;;24.95;10.32;;;;;;;-5.87;52.04;101786.63;6174615;23;20019;-85
2023/12/07 11:42:10;;;;;;;;;;;;;;;-5.78;51.76;101804.41;6202976;23;20072;-88
2023/12/07 11:45:01;;;;;;;23.83;10.55;;;;;;;-5.80;52.46;101800.19;6208340;23;19939;-86
2023/12/07 11:48:21;;;;;;;23.30;9.38;;;;;;;-6.22;52.03;101734.06;6120009;23;20034;-89
2023/12/07 11:51:12;;;;;;;22.20;10.48;;;;;;;-5.86;52.14;101790.97;6193697;23;20043;-85
2023/12/07 12:01:17;;;;;;;26.10;11.27;;;;;;;-6.18;52.63;101760.25;6089179;23;20020;-88
2023/12/07 12:04:43;;;;;;;30.65;13.27;;;;;;;-5.96;52.63;101799.03;6066083;23;20023;-89
2023/12/07 12:11:00;;;;;;;32.37;11.27;;;;;;;-6.04;52.98;101809.53;6299594;22;20023;-90
2023/12/07 12:13:57;;;;;;;26.58;11.35;;;;;;;-6.03;52.96;101805.06;6250147;22;20035;-87
2023/12/07 12:16:40;;;;;;;26.58;11.52;;;;;;;-6.09;53.17;101795.84;6224773;22;20011;-91
2023/12/07 12:20:24;;;;;;;26.30;11.05;;;;;;;-5.99;53.40;101794.00;6284578;22;20027;-90
2023/12/07 12:23:00;;;;;;;36.55;13.77;;;;;;;-5.95;53.37;101797.19;6225813;22;20019;-88
2023/12/07 12:25:51;;;;;;;40.88;15.82;;;;;;;-6.01;53.55;101784.47;6227332;22;20086;-90
2023/12/07 12:28:42;;;;;;;38.67;16.88;;;;;;;-6.04;53.54;101798.88;6260054;22;20023;-90
2023/12/07 12:32:12;;;;;;;31.42;14.18;;;;;;;-6.12;53.68;101814.75;6270286;22;20381;-91
2023/12/07 12:35:19;;;;;;;32.78;14.23;;;;;;;-6.13;53.97;101790.91;6198524;22;20035;-89
2023/12/07 12:43:12;;;;;;;32.53;15.38;;;;;;;-6.40;54.77;101771.19;6224288;22;20020;-91
2023/12/07 12:50:00;;;;;;;26.70;14.35;;;;;;;-6.68;55.15;101722.38;6240718;23;20020;-90
2023/12/07 12:53:18;;;;;;;34.13;14.55;;;;;;;-6.06;55.08;101810.66;6240315;23;20063;-90
2023/12/07 12:56:55;;;;;;;31.98;13.57;;;;;;;-6.35;55.30;101776.13;6244026;23;20044;-89
2023/12/07 13:04:56;;;;;;;35.30;14.32;;;;;;;-6.12;54.93;101817.41;6232270;23;20001;-90
2023/12/07 13:37:47;;;;;;;23.20;9.85;;;;;;;-6.24;56.26;101829.19;6237936;22;20036;-91
2023/12/07 13:41:28;;;;;;;17.65;9.05;;;;;;;-6.35;56.41;101829.34;6246894;23;20050;-90
2023/12/07 13:45:20;;;;;;;21.80;10.70;;;;;;;-6.28;56.38;101825.13;6226826;23;20092;-89
2023/12/07 13:48:31;;;;;;;24.55;10.52;;;;;;;-7.07;57.01;101709.06;6262159;22;20024;-89
2023/12/07 13:52:20;;;;;;;28.23;10.52;;;;;;;-6.92;57.00;101758.19;6208060;23;20116;-90
2023/12/07 13:54:49;;;;;;;19.38;8.50;;;;;;;-6.60;56.43;101822.75;6182912;23;20040;-89
2023/12/07 13:57:46;;;;;;;23.00;9.50;;;;;;;-6.37;56.20;101832.13;6159447;23;20021;-89
2023/12/07 14:01:11;;;;;;;23.05;9.15;;;;;;;-6.62;55.89;101770.53;6207198;23;20021;-88
2023/12/07 14:04:29;;;;;;;20.30;8.63;;;;;;;-6.32;55.62;101834.38;6186030;23;20015;-90
2023/12/07 14:15:48;;;;;;;14.18;7.97;;;;;;;-6.54;56.21;101840.81;6255633;22;20004;-88
2023/12/07 14:18:50;;;;;;;21.05;9.15;;;;;;;-7.21;56.22;101728.09;6171871;22;20020;-88
2023/12/07 14:21:20;;;;;;;18.25;7.72;;;;;;;-6.53;55.56;101848.66;6095985;23;20074;-88
2023/12/07 14:24:15;;;;;;;14.25;7.10;;;;;;;-7.12;55.60;101757.34;6101454;23;20038;-89
2023/12/07 14:27:15;;;;;;;26.95;8.70;;;;;;;-7.07;55.29;101790.63;6073756;23;20012;-90
2023/12/07 14:29:53;;;;;;;15.10;7.88;;;;;;;-7.20;55.47;101780.25;6096117;23;20022;-90
2023/12/07 14:32:27;;;;;;;13.68;7.60;;;;;;;-7.16;55.97;101801.09;6048609;23;20070;-90
2023/12/07 14:48:51;;;;;;;26.30;10.45;;;;;;;-7.26;55.04;101756.88;6232377;22;20043;-90
2023/12/07 14:51:45;;;;;;;24.08;10.25;;;;;;;-6.72;54.02;101848.63;6212914;23;20021;-88
2023/12/07 14:55:31;;;;;;;9.48;4.97;;;;;;;-7.53;54.41;101725.63;6146056;23;20059;-89
2023/12/07 14:58:24;;;;;;;17.55;7.15;;;;;;;-6.74;54.75;101846.13;6124901;23;20026;-88
2023/12/07 15:01:34;;;;;;;20.85;9.48;;;;;;;-7.05;54.19;101800.16;6128613;23;20022;-90
2023/12/07 15:08:21;;;;;;;35.92;17.25;;;;;;;-6.77;53.90;101856.19;6256617;23;20213;-90
2023/12/07 15:36:30;;;;;;;11.07;5.78;;;;;;;-7.92;56.39;101766.13;6248650;22;20057;-91
2023/12/07 15:39:58;;;;;;;32.55;13.63;;;;;;;-7.66;56.48;101801.06;6180458;23;20044;-90
2023/12/07 15:42:47;;;;;;;21.67;10.23;;;;;;;-7.48;55.74;101806.59;6181408;23;20045;-90
2023/12/07 15:45:56;;;;;;;40.80;16.35;;;;;;;-7.05;54.81;101858.66;6157319;23;20025;-88
2023/12/07 15:51:22;;;;;;;14.93;8.00;;;;;;;-7.51;54.73;101767.03;6241880;23;20024;-89
2023/12/07 15:54:38;;;;;;;14.63;7.55;;;;;;;-7.61;54.10;101764.34;6198354;23;20008;-90
2023/12/07 16:24:36;;;;;;;18.50;8.45;;;;;;;-6.79;54.59;101856.31;6242038;23;20023;-90